ANACAPA ISLAND CA US current weather conditions

sailwx.info

Wind from 306 at 4 knots gusting 6

Air temperature 12.2° C
Dewpoint 8.9° C

Last reported at 2017-Apr-30 13:23 UTC.
Time now 2017-Apr-30 14:50 UTC

Location: N 34°01' W 119°22'.
View on Google Maps.

See reports from other nearby stations

  
Tides and Currents Weather Stations Pressure Air Temp Water Temp Dewpoint Dewpoint Depression Visibility Wind Speed Wind Dir Waves Ship Positions
date/time (UTC)wind fromknots sea level pressurealtimeterstation pressurevisibilityair tempwater tempwave heightnotes
2017-Apr-30 14:23 314 4 gusting 7 13.9
2017-Apr-30 13:23 306 4 gusting 6 12.2
2017-Apr-30 12:23 314 5 gusting 10 12.2
2017-Apr-30 11:23 331 7 gusting 12 12.8
2017-Apr-30 10:23 321 7 gusting 15 13.3
2017-Apr-30 09:23 348 9 gusting 14 13.9
2017-Apr-30 08:23 357 6 gusting 11 13.3
2017-Apr-30 07:23 349 8 gusting 14 15.0
2017-Apr-30 06:23 318 9 gusting 19 16.1
2017-Apr-30 05:23 298 10 gusting 20 16.7
2017-Apr-30 04:23 294 13 gusting 23 18.3
2017-Apr-30 03:23 292 11 gusting 19 16.1
2017-Apr-30 02:23 299 13 gusting 22 17.8
2017-Apr-30 01:23 297 12 gusting 19 16.1
2017-Apr-30 00:23 298 10 gusting 17 17.2
2017-Apr-29 23:23 297 7 gusting 15 17.8
2017-Apr-29 22:23 299 7 gusting 17 18.9
2017-Apr-29 21:23 293 9 gusting 14 17.8
2017-Apr-29 20:23 301 7 gusting 13 19.4
2017-Apr-29 19:23 297 6 gusting 13 19.4
2017-Apr-29 18:23 328 6 gusting 10 17.8
2017-Apr-29 17:23 333 6 gusting 9 16.1
2017-Apr-29 16:23 358 6 gusting 13 15.0
2017-Apr-29 15:23 031 8 gusting 15 16.7
2017-Apr-29 14:23 008 7 gusting 11 16.1
2017-Apr-29 13:23 342 6 gusting 11 13.9
2017-Apr-29 12:23 360 9 gusting 14 15.0
2017-Apr-29 11:23 002 8 gusting 14 16.1
2017-Apr-29 10:23 349 7 gusting 14 16.7
2017-Apr-29 09:23 003 7 gusting 13 16.7
2017-Apr-29 08:23 321 6 gusting 13 16.1
2017-Apr-29 07:23 322 7 gusting 19 16.7
2017-Apr-29 06:23 005 8 gusting 15 16.7
2017-Apr-29 05:23 312 9 gusting 17 15.6
2017-Apr-29 04:23 319 11 gusting 19 15.0
2017-Apr-29 03:23 311 14 gusting 26 13.9
2017-Apr-29 02:23 311 19 gusting 29 14.4
2017-Apr-29 01:23 305 15 gusting 25 15.6
2017-Apr-29 00:23 296 18 gusting 27 17.2
2017-Apr-28 23:23 295 17 gusting 27 17.8
2017-Apr-28 22:23 297 17 gusting 26 18.9
2017-Apr-28 21:23 301 13 gusting 27 17.8
2017-Apr-28 20:23 296 11 gusting 20 18.3
2017-Apr-28 19:23 309 14 gusting 25 17.8
2017-Apr-28 18:23 307 11 gusting 19 17.2
2017-Apr-28 17:23 299 6 gusting 16 16.7
2017-Apr-28 16:23 308 9 gusting 19 15.0
2017-Apr-28 15:23 308 11 gusting 17 14.4
2017-Apr-28 14:23 304 10 gusting 21 13.9